Bville, New York
Current Conditions -  °F | °C
As of 5:11 PM on Thursday 27 Nov 2014 (Local Time) from KFZY Reporting Station
Light Snow Light Snow  
Wind Chill: 29°   Ceiling: 2600
Heat Index: 29°   Visibility: 2.5mi
Dew Point: 26°   Wind: 0mph
Humidity: 89%   Direction: NA
Pressure: 30.05"   Gusts: NA
Location:  43.1825°N, 76.3664°W
Report Text: KFZY 272211Z AUTO 00000KT 2 1/2SM -SN BR BKN026 OVC037 M02/M03 A3005 RMK AO2 SNB2156 P0000 T10171033
Loading
Personal Weather Stations






























Interactive Weather Map New forecast layout! Learn more

10-Day Weather Forecast

Advertisements
Track Severe Weather on mobile